Terminal Aerodrome Forecast
Issued by NWS Atlanta, GA

Home | Current Version | Previous Version | Text Only | Print | Product List | Glossary On
Versions: 1 2 3 4 5 6 7 8 9 10 11 12 13 14 15 16 17 18 19 20 21 22 23 24 25 26 27 28 29 30 31 32 33 34 35 36 37 38 39 40 41
000
FTUS42 KFFC 020317 AAB
TAFATL
TAF AMD
KATL 020317Z 0203/0306 17005KT 3SM -DZ BR OVC004
     FM020500 19003KT 4SM -RA BR OVC006
     FM020700 23003KT 1SM -DZ BR OVC003
     FM021500 28005KT 4SM -RA OVC007
     FM021900 31007KT P6SM VCSH BKN012 PROB30 0220/0301 5SM -SHRA
      BKN009
     FM030100 34004KT 6SM BR OVC009
     FM030500 03003KT 4SM BR OVC007=

USA.gov is the U.S. government's official web portal to all federal, state and local government web resources and services.